Time;durP1;ratioP1;P1;durP2;ratioP2;P2;SDS_P1;SDS_P2;PMS_P1;PMS_P2;Temp;Humidity;BMP_temperature;BMP_pressure;BME280_temperature;BME280_humidity;BME280_pressure;Samples;Min_cycle;Max_cycle;Signal;HPM_P1;HPM_P2
2023/09/23 00:01:53;;;;;;;15.43;6.70;;;17.10;99.90;;;;;;4195980;28;20037;-60
2023/09/23 00:03:54;;;;;;;11.63;5.40;;;17.00;99.90;;;;;;4196097;28;20040;-63
2023/09/23 00:05:56;;;;;;;13.35;6.03;;;17.00;99.90;;;;;;4195858;28;20431;-57
2023/09/23 00:07:58;;;;;;;28.58;7.18;;;17.00;99.90;;;;;;4189420;28;20049;-60
2023/09/23 00:10:00;;;;;;;14.05;5.35;;;16.90;99.90;;;;;;4196341;28;20102;-62
2023/09/23 00:12:01;;;;;;;10.77;5.00;;;16.80;99.90;;;;;;4194734;28;20123;-62
2023/09/23 00:14:03;;;;;;;13.73;5.78;;;16.80;99.90;;;;;;4195737;28;20117;-63
2023/09/23 00:16:08;;;;;;;14.07;6.70;;;16.70;99.90;;;;;;4194697;28;20056;-61
2023/09/23 00:18:09;;;;;;;13.02;5.93;;;16.70;99.90;;;;;;4196065;28;20089;-60
2023/09/23 00:20:17;;;;;;;15.00;6.80;;;16.60;99.90;;;;;;4177442;28;20489;-63
2023/09/23 00:22:18;;;;;;;17.08;5.72;;;16.60;99.90;;;;;;4196948;28;20540;-61
2023/09/23 00:24:19;;;;;;;17.92;6.65;;;16.50;99.90;;;;;;4194708;28;20102;-57
2023/09/23 00:26:22;;;;;;;17.80;6.93;;;16.40;99.90;;;;;;4195627;28;20078;-60
2023/09/23 00:28:25;;;;;;;12.73;6.45;;;16.40;99.90;;;;;;4194786;28;20496;-60
2023/09/23 00:30:27;;;;;;;22.42;7.15;;;16.40;99.90;;;;;;4195401;28;20048;-62
2023/09/23 00:32:28;;;;;;;16.50;7.20;;;16.40;99.90;;;;;;4195873;28;20020;-61
2023/09/23 00:34:30;;;;;;;20.45;7.10;;;16.40;99.90;;;;;;4196375;28;20848;-62
2023/09/23 00:36:31;;;;;;;19.40;7.68;;;16.40;99.90;;;;;;4195114;28;20037;-61
2023/09/23 00:38:32;;;;;;;18.13;7.70;;;16.40;99.90;;;;;;4194723;28;20033;-61
2023/09/23 00:40:33;;;;;;;14.95;7.20;;;16.40;99.90;;;;;;4194948;28;20049;-62
2023/09/23 00:42:36;;;;;;;14.52;7.50;;;16.40;99.90;;;;;;4194189;28;20036;-61
2023/09/23 00:44:40;;;;;;;17.30;6.78;;;16.40;99.90;;;;;;4195215;28;20111;-60
2023/09/23 00:46:44;;;;;;;14.10;6.70;;;16.50;99.90;;;;;;4195469;28;20447;-60
2023/09/23 00:48:45;;;;;;;22.02;10.05;;;16.40;99.90;;;;;;4195938;28;20040;-61
2023/09/23 00:50:47;;;;;;;16.20;6.55;;;16.50;99.90;;;;;;4195188;28;20093;-61
2023/09/23 00:52:51;;;;;;;13.52;6.30;;;16.50;99.90;;;;;;4196141;28;20097;-62
2023/09/23 00:54:53;;;;;;;12.70;5.97;;;16.40;99.90;;;;;;4194862;28;20033;-59
2023/09/23 00:56:54;;;;;;;11.70;6.25;;;16.40;99.90;;;;;;4195098;28;20145;-62
2023/09/23 00:58:55;;;;;;;10.23;6.38;;;16.40;99.90;;;;;;4194545;28;20078;-57
2023/09/23 01:00:56;;;;;;;18.30;7.38;;;16.30;99.90;;;;;;4194887;28;20082;-61
2023/09/23 01:02:59;;;;;;;14.68;7.07;;;16.40;99.90;;;;;;4194003;28;20446;-61
2023/09/23 01:05:00;;;;;;;16.85;8.25;;;16.40;99.90;;;;;;4195013;28;20111;-57
2023/09/23 01:07:01;;;;;;;17.08;6.50;;;16.40;99.90;;;;;;4195559;28;20032;-57
2023/09/23 01:09:09;;;;;;;15.38;6.28;;;16.40;99.90;;;;;;4195656;28;20074;-61
2023/09/23 01:11:12;;;;;;;17.30;6.40;;;16.30;99.90;;;;;;4193969;28;20032;-60
2023/09/23 01:13:13;;;;;;;15.05;6.28;;;16.30;99.90;;;;;;4193908;28;20494;-61
2023/09/23 01:15:17;;;;;;;11.57;6.70;;;16.30;99.90;;;;;;4195868;28;20029;-61
2023/09/23 01:17:18;;;;;;;11.73;6.28;;;16.30;99.90;;;;;;4195038;28;20028;-61
2023/09/23 01:19:23;;;;;;;11.55;6.90;;;16.40;99.90;;;;;;4195701;28;20094;-62
2023/09/23 01:21:24;;;;;;;12.98;6.78;;;16.30;99.90;;;;;;4193928;28;20110;-60
2023/09/23 01:23:26;;;;;;;16.77;7.68;;;16.40;99.90;;;;;;4194526;28;20053;-60
2023/09/23 01:25:27;;;;;;;14.50;6.53;;;16.30;99.90;;;;;;4194112;28;20094;-57
2023/09/23 01:27:28;;;;;;;13.88;7.07;;;16.30;99.90;;;;;;4194343;28;20094;-60
2023/09/23 01:29:29;;;;;;;12.57;6.82;;;16.30;99.90;;;;;;4193399;28;20044;-60
2023/09/23 01:31:30;;;;;;;13.48;7.28;;;16.30;99.90;;;;;;4194850;28;20041;-60
2023/09/23 01:33:32;;;;;;;13.45;6.18;;;16.30;99.90;;;;;;4194312;28;20476;-58
2023/09/23 01:35:34;;;;;;;11.50;6.43;;;16.30;99.90;;;;;;4194534;28;20044;-56
2023/09/23 01:37:35;;;;;;;9.75;6.57;;;16.30;99.90;;;;;;4194058;28;20086;-62
2023/09/23 01:39:41;;;;;;;12.88;6.85;;;16.20;99.90;;;;;;4195357;28;20058;-62
2023/09/23 01:41:42;;;;;;;19.23;6.40;;;16.20;99.90;;;;;;4193902;28;20114;-60
2023/09/23 01:43:43;;;;;;;13.40;7.20;;;16.20;99.90;;;;;;4193773;28;20063;-58
2023/09/23 01:45:44;;;;;;;11.65;6.32;;;16.10;99.90;;;;;;4193804;28;20086;-61
2023/09/23 01:47:46;;;;;;;13.02;6.57;;;16.10;99.90;;;;;;4193691;28;20443;-62
2023/09/23 01:49:47;;;;;;;13.60;5.85;;;16.10;99.90;;;;;;4194988;28;20078;-61
2023/09/23 01:51:49;;;;;;;14.43;6.60;;;16.10;99.90;;;;;;4193966;28;20478;-60
2023/09/23 01:53:50;;;;;;;14.85;7.40;;;16.10;99.90;;;;;;4195335;28;20032;-61
2023/09/23 01:55:52;;;;;;;18.38;7.32;;;16.10;99.90;;;;;;4194693;28;20040;-61
2023/09/23 01:57:53;;;;;;;16.20;6.55;;;16.10;99.90;;;;;;4194800;28;20033;-61
2023/09/23 01:59:54;;;;;;;13.15;6.72;;;16.10;99.90;;;;;;4193614;28;20040;-61
2023/09/23 02:01:55;;;;;;;15.88;7.90;;;16.10;99.90;;;;;;4194397;28;20032;-62
2023/09/23 02:03:57;;;;;;;16.30;7.65;;;16.00;99.90;;;;;;4193243;28;20082;-61
2023/09/23 02:05:58;;;;;;;15.23;7.97;;;15.90;99.90;;;;;;4194528;28;20102;-61
2023/09/23 02:07:59;;;;;;;13.77;7.05;;;15.80;99.90;;;;;;4193272;28;20032;-59
2023/09/23 02:10:00;;;;;;;16.67;7.90;;;15.80;99.90;;;;;;4194076;28;20086;-61
2023/09/23 02:12:02;;;;;;;15.18;7.43;;;15.80;99.90;;;;;;4192858;28;20096;-61
2023/09/23 02:14:04;;;;;;;16.38;7.72;;;15.80;99.90;;;;;;4194898;28;20534;-61
2023/09/23 02:16:05;;;;;;;15.05;6.60;;;15.80;99.90;;;;;;4194334;28;20472;-60
2023/09/23 02:18:07;;;;;;;13.02;7.47;;;15.80;99.90;;;;;;4193038;28;20036;-60
2023/09/23 02:20:11;;;;;;;11.35;6.60;;;15.80;99.90;;;;;;4194683;28;20021;-62
2023/09/23 02:22:12;;;;;;;11.02;6.97;;;15.80;99.90;;;;;;4193243;28;20094;-61
2023/09/23 02:24:13;;;;;;;12.88;6.80;;;15.80;99.90;;;;;;4192908;28;20044;-60
2023/09/23 02:26:15;;;;;;;13.40;6.65;;;15.80;99.90;;;;;;4193717;28;20036;-61
2023/09/23 02:28:17;;;;;;;11.68;6.35;;;15.90;99.90;;;;;;4193596;28;20048;-62
2023/09/23 02:30:19;;;;;;;10.80;6.25;;;15.80;99.90;;;;;;4192569;28;20530;-62
2023/09/23 02:32:20;;;;;;;15.77;6.60;;;15.80;99.90;;;;;;4194778;28;20081;-62
2023/09/23 02:34:21;;;;;;;15.55;7.55;;;15.80;99.90;;;;;;4192668;28;20443;-59
2023/09/23 02:36:22;;;;;;;10.57;6.80;;;15.80;99.90;;;;;;4194744;28;20082;-62
2023/09/23 02:38:25;;;;;;;12.20;6.25;;;15.80;99.90;;;;;;4192184;28;20086;-61
2023/09/23 02:40:27;;;;;;;14.60;6.80;;;15.80;99.90;;;;;;4193668;28;20056;-62
2023/09/23 02:42:28;;;;;;;14.23;7.97;;;15.80;99.90;;;;;;4192527;28;20033;-61
2023/09/23 02:44:30;;;;;;;13.43;7.47;;;15.80;99.90;;;;;;4193502;28;20052;-61
2023/09/23 02:46:32;;;;;;;14.75;6.90;;;15.80;99.90;;;;;;4193227;28;20047;-61
2023/09/23 02:48:33;;;;;;;19.08;7.10;;;15.80;99.90;;;;;;4193764;28;20476;-61
2023/09/23 02:50:36;;;;;;;14.75;6.63;;;15.80;99.90;;;;;;4193875;28;20059;-61
2023/09/23 02:52:41;;;;;;;16.15;8.43;;;15.80;99.90;;;;;;4193685;28;20086;-61
2023/09/23 02:54:42;;;;;;;18.00;7.68;;;15.80;99.90;;;;;;4194382;28;20032;-60
2023/09/23 02:56:46;;;;;;;13.45;7.18;;;15.80;99.90;;;;;;4192281;28;20148;-62
2023/09/23 02:58:48;;;;;;;13.38;6.43;;;15.70;99.90;;;;;;4193707;28;20439;-61
2023/09/23 03:00:57;;;;;;;11.57;6.13;;;15.70;99.90;;;;;;4192674;28;20082;-61
2023/09/23 03:03:01;;;;;;;16.23;6.67;;;15.70;99.90;;;;;;4193544;28;20114;-62
2023/09/23 03:05:07;;;;;;;14.82;6.65;;;15.70;99.90;;;;;;4192424;28;20323;-60
2023/09/23 03:07:09;;;;;;;14.00;6.28;;;15.60;99.90;;;;;;4193968;28;20428;-62
2023/09/23 03:09:12;;;;;;;14.70;6.88;;;15.60;99.90;;;;;;4193284;28;20032;-62
2023/09/23 03:11:18;;;;;;;14.23;6.07;;;15.60;99.90;;;;;;4192391;28;20048;-59
2023/09/23 03:13:20;;;;;;;12.50;6.43;;;15.50;99.90;;;;;;4193056;28;20040;-60
2023/09/23 03:15:33;;;;;;;15.55;5.70;;;15.50;99.90;;;;;;4194010;28;20093;-61
2023/09/23 03:17:34;;;;;;;11.20;6.30;;;15.50;99.90;;;;;;4192227;28;20071;-61
2023/09/23 03:19:36;;;;;;;11.65;6.72;;;15.40;99.90;;;;;;4193339;28;20101;-58
2023/09/23 03:21:41;;;;;;;11.48;7.40;;;15.40;99.90;;;;;;4192309;28;20040;-62
2023/09/23 03:23:42;;;;;;;12.82;6.53;;;15.40;99.90;;;;;;4193705;28;20353;-60
2023/09/23 03:25:47;;;;;;;13.07;6.43;;;15.40;99.90;;;;;;4192156;28;20036;-60
2023/09/23 03:27:50;;;;;;;16.13;6.22;;;15.40;99.90;;;;;;4192384;28;20067;-54
2023/09/23 03:29:52;;;;;;;13.52;6.20;;;15.40;99.90;;;;;;4191899;28;20558;-61
2023/09/23 03:31:54;;;;;;;11.13;6.72;;;15.40;99.90;;;;;;4192627;28;20090;-61
2023/09/23 03:33:55;;;;;;;10.15;5.75;;;15.40;99.90;;;;;;4193477;28;20413;-59
2023/09/23 03:35:57;;;;;;;11.75;6.15;;;15.40;99.90;;;;;;4193766;28;20036;-59
2023/09/23 03:37:58;;;;;;;12.90;7.00;;;15.40;99.90;;;;;;4197136;28;20125;-59
2023/09/23 03:40:00;;;;;;;12.30;6.90;;;15.30;99.90;;;;;;4196160;28;20021;-59
2023/09/23 03:42:01;;;;;;;16.40;7.53;;;15.30;99.90;;;;;;4196053;28;20480;-60
2023/09/23 03:44:03;;;;;;;19.75;8.30;;;15.20;99.90;;;;;;4195211;28;20102;-60
2023/09/23 03:46:11;;;;;;;13.98;7.93;;;15.20;99.90;;;;;;4196997;28;20477;-61
2023/09/23 03:48:12;;;;;;;17.13;7.93;;;15.10;99.90;;;;;;4196385;28;20036;-59
2023/09/23 03:50:14;;;;;;;14.55;8.25;;;15.10;99.90;;;;;;4196566;28;20052;-62
2023/09/23 03:52:15;;;;;;;14.93;8.88;;;15.10;99.90;;;;;;4195413;28;20033;-61
2023/09/23 03:54:17;;;;;;;15.95;7.82;;;15.10;99.90;;;;;;4196205;28;20458;-62
2023/09/23 03:56:27;;;;;;;16.77;7.93;;;15.10;99.90;;;;;;4195390;28;20515;-61
2023/09/23 03:58:30;;;;;;;15.35;7.78;;;15.10;99.90;;;;;;4196074;28;20052;-60
2023/09/23 04:00:34;;;;;;;14.48;7.25;;;15.10;99.90;;;;;;4194757;28;20045;-62
2023/09/23 04:02:37;;;;;;;17.17;6.97;;;15.20;99.90;;;;;;4195736;28;20040;-60
2023/09/23 04:04:38;;;;;;;10.35;6.68;;;15.10;99.90;;;;;;4194927;28;20048;-62
2023/09/23 04:06:39;;;;;;;11.00;6.82;;;15.20;99.90;;;;;;4196154;28;20090;-62
2023/09/23 04:08:40;;;;;;;15.60;7.18;;;15.20;99.90;;;;;;4195201;28;20530;-62
2023/09/23 04:10:42;;;;;;;12.63;6.53;;;15.20;99.90;;;;;;4195492;28;20037;-63
2023/09/23 04:12:43;;;;;;;12.93;6.93;;;15.20;99.90;;;;;;4196537;28;20554;-62
2023/09/23 04:14:44;;;;;;;16.63;7.40;;;15.20;99.90;;;;;;4194542;28;20512;-61
2023/09/23 04:16:45;;;;;;;16.35;7.65;;;15.20;99.90;;;;;;4196200;28;20046;-62
2023/09/23 04:18:46;;;;;;;21.23;7.53;;;15.20;99.90;;;;;;4195766;28;20025;-61
2023/09/23 04:20:52;;;;;;;15.23;7.47;;;15.20;99.90;;;;;;4196892;28;20866;-60
2023/09/23 04:22:53;;;;;;;18.48;7.40;;;15.20;99.90;;;;;;4194786;28;20040;-60
2023/09/23 04:24:54;;;;;;;13.68;7.05;;;15.30;99.90;;;;;;4195931;28;20061;-58
2023/09/23 04:26:55;;;;;;;18.67;7.93;;;15.30;99.90;;;;;;4195391;28;20077;-61
2023/09/23 04:28:56;;;;;;;14.95;7.35;;;15.40;99.90;;;;;;4196125;28;20078;-63
2023/09/23 04:30:57;;;;;;;17.95;7.82;;;15.50;99.90;;;;;;4194123;28;20029;-57
2023/09/23 04:33:00;;;;;;;12.00;6.70;;;15.60;99.90;;;;;;4193455;28;20098;-58
2023/09/23 04:35:03;;;;;;;12.40;6.65;;;15.70;99.90;;;;;;4195448;28;20472;-60
2023/09/23 04:37:04;;;;;;;17.25;6.63;;;15.80;99.90;;;;;;4196489;28;20074;-62
2023/09/23 04:39:06;;;;;;;14.38;6.80;;;15.90;99.90;;;;;;4194763;28;20040;-59
2023/09/23 04:41:07;;;;;;;18.00;7.40;;;16.10;99.90;;;;;;4196176;28;20025;-61
2023/09/23 04:43:10;;;;;;;15.07;6.47;;;16.20;99.90;;;;;;4195438;28;20074;-62
2023/09/23 04:45:11;;;;;;;19.83;6.97;;;16.30;99.90;;;;;;4195487;28;20083;-62
2023/09/23 04:47:14;;;;;;;19.45;8.23;;;16.50;99.90;;;;;;4194087;28;20447;-62
2023/09/23 04:49:16;;;;;;;26.10;7.72;;;16.60;99.90;;;;;;4195150;28;20028;-61
2023/09/23 04:51:17;;;;;;;11.70;6.43;;;16.80;99.90;;;;;;4195128;28;20040;-62
2023/09/23 04:53:18;;;;;;;13.25;6.97;;;17.00;99.90;;;;;;4193549;28;20049;-58
2023/09/23 04:55:21;;;;;;;12.48;7.07;;;17.20;99.90;;;;;;4195342;28;20117;-61
2023/09/23 04:57:22;;;;;;;13.38;7.13;;;17.30;99.90;;;;;;4194384;28;20048;-62
2023/09/23 04:59:25;;;;;;;11.52;6.50;;;17.60;99.90;;;;;;4195596;28;20041;-61
2023/09/23 05:01:28;;;;;;;14.40;7.47;;;17.80;99.90;;;;;;4194049;28;20067;-62
2023/09/23 05:03:30;;;;;;;11.90;6.65;;;18.00;99.90;;;;;;4196190;28;20081;-61
2023/09/23 05:05:31;;;;;;;15.75;6.72;;;18.20;99.90;;;;;;4193909;28;20373;-60
2023/09/23 05:07:32;;;;;;;15.93;6.78;;;18.40;99.90;;;;;;4195945;28;20094;-63
2023/09/23 05:09:34;;;;;;;13.65;6.68;;;18.70;99.90;;;;;;4193698;28;20036;-61
2023/09/23 05:11:36;;;;;;;12.95;6.50;;;19.00;99.90;;;;;;4177355;28;20543;-62
2023/09/23 05:13:37;;;;;;;15.40;6.38;;;19.40;99.90;;;;;;4194406;28;20113;-62
2023/09/23 05:15:38;;;;;;;15.60;6.30;;;19.80;99.90;;;;;;4194526;28;20037;-59
2023/09/23 05:17:40;;;;;;;8.73;6.38;;;20.10;99.90;;;;;;4194385;28;20032;-62
2023/09/23 05:19:41;;;;;;;15.55;6.57;;;20.50;99.90;;;;;;4193916;28;20040;-61
2023/09/23 05:21:44;;;;;;;22.75;7.22;;;20.90;99.90;;;;;;4194208;28;20431;-62
2023/09/23 05:23:48;;;;;;;23.15;7.75;;;21.30;99.90;;;;;;4194276;28;20387;-61
2023/09/23 05:25:50;;;;;;;17.40;7.13;;;21.50;99.90;;;;;;4194933;28;20048;-61
2023/09/23 05:27:54;;;;;;;14.93;7.05;;;21.70;99.90;;;;;;4193093;28;20098;-61
2023/09/23 05:29:56;;;;;;;19.05;6.28;;;21.90;99.90;;;;;;4194756;28;20435;-62
2023/09/23 05:31:57;;;;;;;14.63;6.28;;;22.00;99.90;;;;;;4194145;28;20090;-61
2023/09/23 05:33:58;;;;;;;17.75;7.53;;;22.10;99.90;;;;;;4194828;28;20033;-61
2023/09/23 05:35:59;;;;;;;13.40;6.75;;;22.00;99.90;;;;;;4192628;28;20090;-56
2023/09/23 05:38:00;;;;;;;12.23;6.45;;;22.10;99.90;;;;;;4195566;28;20093;-64
2023/09/23 05:40:17;;;;;;;12.15;6.35;;;22.20;99.90;;;;;;4193587;28;20082;-61
2023/09/23 05:42:23;;;;;;;12.38;5.57;;;22.50;99.90;;;;;;4194700;28;20102;-62
2023/09/23 05:44:25;;;;;;;22.60;7.68;;;22.60;99.90;;;;;;4194285;28;20032;-62
2023/09/23 05:46:29;;;;;;;16.65;6.60;;;22.60;99.90;;;;;;4194377;28;20098;-58
2023/09/23 05:48:31;;;;;;;13.25;6.05;;;22.50;99.90;;;;;;4194258;28;20086;-61
2023/09/23 05:50:32;;;;;;;16.25;6.25;;;22.10;99.90;;;;;;4194105;28;20044;-61
2023/09/23 05:52:35;;;;;;;14.07;7.90;;;21.60;99.90;;;;;;4177895;28;20489;-62
2023/09/23 05:54:36;;;;;;;14.18;8.50;;;21.30;99.90;;;;;;4177536;28;20099;-61
2023/09/23 05:56:37;;;;;;;15.10;7.75;;;21.10;99.90;;;;;;4185153;28;20049;-63
2023/09/23 05:58:38;;;;;;;13.82;7.75;;;21.20;99.90;;;;;;4193584;28;20420;-61
2023/09/23 06:00:40;;;;;;;15.13;7.07;;;21.40;99.90;;;;;;4193114;28;20040;-60
2023/09/23 06:02:41;;;;;;;14.57;7.63;;;21.90;99.90;;;;;;4192344;28;20048;-61
2023/09/23 06:04:42;;;;;;;18.23;6.63;;;22.30;99.90;;;;;;4195029;28;20086;-67
2023/09/23 06:06:43;;;;;;;15.88;6.57;;;22.50;99.90;;;;;;4193229;28;20045;-58
2023/09/23 06:08:48;;;;;;;16.55;7.72;;;22.10;99.90;;;;;;4193660;28;20469;-62
2023/09/23 06:10:50;;;;;;;12.60;7.32;;;22.00;99.90;;;;;;4192936;28;20418;-61
2023/09/23 06:12:51;;;;;;;12.43;6.22;;;21.90;99.90;;;;;;4194201;28;20118;-64
2023/09/23 06:14:53;;;;;;;13.80;6.35;;;21.90;99.90;;;;;;4192820;28;20036;-62
2023/09/23 06:16:54;;;;;;;15.00;6.15;;;21.80;99.90;;;;;;4194629;28;20036;-61
2023/09/23 06:18:55;;;;;;;10.20;5.55;;;22.00;99.90;;;;;;4192760;28;20074;-62
2023/09/23 06:20:58;;;;;;;9.52;6.82;;;22.20;99.90;;;;;;4176717;28;20055;-64
2023/09/23 06:22:59;;;;;;;16.23;6.53;;;22.50;99.90;;;;;;4192427;28;20135;-60
2023/09/23 06:25:02;;;;;;;12.63;6.68;;;22.50;99.90;;;;;;4192892;28;20041;-61
2023/09/23 06:27:03;;;;;;;11.95;6.95;;;22.50;99.90;;;;;;4192981;28;20589;-62
2023/09/23 06:29:04;;;;;;;10.50;6.07;;;22.20;99.90;;;;;;4194155;28;20028;-63
2023/09/23 06:31:09;;;;;;;16.02;6.30;;;22.20;99.90;;;;;;4193782;28;20109;-57
2023/09/23 06:33:11;;;;;;;12.30;5.95;;;21.90;99.90;;;;;;4192717;28;20040;-62
2023/09/23 06:35:14;;;;;;;10.00;6.95;;;21.80;99.90;;;;;;4194591;28;20016;-62
2023/09/23 06:37:15;;;;;;;12.07;6.72;;;21.80;99.90;;;;;;4192537;28;20094;-62
2023/09/23 06:39:16;;;;;;;12.90;6.90;;;21.80;99.90;;;;;;4194277;28;20105;-62
2023/09/23 06:41:17;;;;;;;18.17;8.65;;;21.90;99.90;;;;;;4193210;28;20549;-63
2023/09/23 06:43:18;;;;;;;20.15;6.45;;;22.40;99.90;;;;;;4192582;28;20074;-62
2023/09/23 06:45:19;;;;;;;10.57;6.13;;;22.90;99.90;;;;;;4193541;28;20090;-63
2023/09/23 06:47:20;;;;;;;12.18;5.68;;;22.80;99.90;;;;;;4193480;28;20054;-62
2023/09/23 06:49:22;;;;;;;18.92;6.10;;;22.50;99.90;;;;;;4192326;28;20093;-63
2023/09/23 06:51:23;;;;;;;13.20;6.10;;;22.20;99.90;;;;;;4194178;28;20032;-61
2023/09/23 06:53:24;;;;;;;12.73;5.50;;;22.60;99.90;;;;;;4191443;28;20066;-64
2023/09/23 06:55:25;;;;;;;13.65;5.72;;;22.90;99.90;;;;;;4175947;28;20501;-62
2023/09/23 06:57:26;;;;;;;10.18;6.10;;;22.40;99.90;;;;;;4174814;28;20037;-61
2023/09/23 06:59:28;;;;;;;12.82;5.28;;;22.20;99.90;;;;;;4193065;28;20041;-61
2023/09/23 07:01:29;;;;;;;11.77;5.72;;;21.90;99.90;;;;;;4192738;28;20086;-62
2023/09/23 07:03:30;;;;;;;14.80;7.03;;;21.80;99.90;;;;;;4174362;28;20049;-58
2023/09/23 07:05:31;;;;;;;11.25;5.60;;;21.80;99.90;;;;;;4193726;28;20447;-64
2023/09/23 07:07:32;;;;;;;10.40;6.00;;;22.00;99.90;;;;;;4192348;28;20065;-64
2023/09/23 07:09:33;;;;;;;11.68;5.57;;;22.20;99.90;;;;;;4192316;28;20451;-64
2023/09/23 07:11:34;;;;;;;16.77;7.07;;;22.30;99.90;;;;;;4191062;28;20028;-64
2023/09/23 07:13:35;;;;;;;10.40;5.65;;;22.10;99.90;;;;;;4193882;28;20458;-64
2023/09/23 07:15:38;;;;;;;9.90;5.60;;;22.20;99.90;;;;;;4191714;28;20040;-64
2023/09/23 07:17:39;;;;;;;17.42;6.40;;;22.30;99.90;;;;;;4193005;28;20021;-66
2023/09/23 07:19:40;;;;;;;19.88;7.40;;;22.50;99.90;;;;;;4191833;28;20098;-64
2023/09/23 07:21:41;;;;;;;18.45;7.22;;;22.40;99.90;;;;;;4175500;28;20033;-65
2023/09/23 07:23:42;;;;;;;17.70;6.88;;;22.40;99.90;;;;;;4192256;28;20097;-65
2023/09/23 07:25:43;;;;;;;11.70;5.85;;;22.50;99.90;;;;;;4174166;28;20049;-58
2023/09/23 07:27:44;;;;;;;18.05;6.32;;;22.80;99.90;;;;;;4190149;28;20037;-65
2023/09/23 07:29:45;;;;;;;14.30;6.30;;;22.80;99.90;;;;;;4192493;28;20036;-68
2023/09/23 07:31:47;;;;;;;19.63;8.00;;;22.70;99.90;;;;;;4192853;28;20028;-65
2023/09/23 07:33:48;;;;;;;19.60;7.13;;;22.70;99.90;;;;;;4191977;28;20037;-62
2023/09/23 07:35:49;;;;;;;13.15;5.07;;;22.80;99.90;;;;;;4193102;28;20041;-64
2023/09/23 07:37:50;;;;;;;14.60;5.90;;;23.00;99.90;;;;;;4191226;28;20037;-64
2023/09/23 07:39:51;;;;;;;9.95;5.05;;;23.10;99.90;;;;;;4192869;28;20040;-64
2023/09/23 07:41:52;;;;;;;11.48;5.00;;;23.40;99.90;;;;;;4192461;28;20376;-65
2023/09/23 07:43:53;;;;;;;9.85;4.78;;;23.50;99.90;;;;;;4193112;28;20045;-66
2023/09/23 07:45:55;;;;;;;12.23;4.95;;;23.30;99.90;;;;;;4174144;28;20118;-67
2023/09/23 07:47:56;;;;;;;14.48;4.72;;;23.20;99.90;;;;;;4175271;28;20041;-61
2023/09/23 07:49:58;;;;;;;13.90;5.47;;;23.20;99.90;;;;;;4192445;28;20041;-65
2023/09/23 07:51:59;;;;;;;12.98;4.07;;;23.20;99.90;;;;;;4175870;28;20055;-62
2023/09/23 07:54:01;;;;;;;17.55;4.55;;;23.30;99.90;;;;;;4191528;28;20040;-67
2023/09/23 07:56:02;;;;;;;12.07;4.63;;;23.40;99.90;;;;;;4193387;28;20033;-63
2023/09/23 07:58:04;;;;;;;12.48;4.30;;;23.30;99.90;;;;;;4192499;28;20562;-64
2023/09/23 08:00:09;;;;;;;13.75;5.13;;;23.30;99.90;;;;;;4193442;28;20028;-62
2023/09/23 08:02:10;;;;;;;8.52;4.05;;;23.40;99.90;;;;;;4192405;28;20036;-62
2023/09/23 08:04:11;;;;;;;11.52;5.35;;;23.40;99.90;;;;;;4191628;28;20044;-62
2023/09/23 08:06:12;;;;;;;16.58;6.20;;;23.30;99.90;;;;;;4191108;28;20110;-64
2023/09/23 08:08:14;;;;;;;14.20;4.47;;;23.40;99.90;;;;;;4191995;28;20486;-63
2023/09/23 08:10:15;;;;;;;8.75;4.88;;;23.40;99.90;;;;;;4193923;28;20098;-61
2023/09/23 08:12:16;;;;;;;12.82;5.63;;;23.50;99.90;;;;;;4191700;28;20028;-62
2023/09/23 08:14:17;;;;;;;18.00;5.95;;;23.50;99.90;;;;;;4193516;28;20028;-56
2023/09/23 08:16:19;;;;;;;8.38;3.70;;;23.60;99.90;;;;;;4192315;28;20025;-57
2023/09/23 08:18:20;;;;;;;10.13;4.32;;;23.60;99.90;;;;;;4193266;28;20029;-58
2023/09/23 08:20:23;;;;;;;16.38;6.50;;;23.60;99.90;;;;;;4192218;28;20029;-56
2023/09/23 08:22:24;;;;;;;16.38;4.13;;;23.80;99.90;;;;;;4193927;28;20090;-64
2023/09/23 08:24:26;;;;;;;13.90;4.68;;;23.90;99.90;;;;;;4194697;28;20105;-56
2023/09/23 08:26:27;;;;;;;13.20;4.65;;;24.00;99.90;;;;;;4195758;28;20040;-58
2023/09/23 08:28:28;;;;;;;11.50;4.20;;;24.20;99.90;;;;;;4194215;28;20029;-66
2023/09/23 08:30:29;;;;;;;12.38;4.10;;;24.20;99.90;;;;;;4195998;28;20040;-60
2023/09/23 08:32:30;;;;;;;12.73;4.60;;;24.30;99.90;;;;;;4195530;28;20125;-62
2023/09/23 08:34:31;;;;;;;11.70;4.10;;;24.40;99.90;;;;;;4195047;28;20537;-62
2023/09/23 08:36:32;;;;;;;11.55;3.95;;;24.50;99.90;;;;;;4194399;28;20090;-61
2023/09/23 08:38:34;;;;;;;10.73;4.18;;;24.40;99.90;;;;;;4194012;28;20037;-56
2023/09/23 08:40:38;;;;;;;14.57;4.80;;;24.40;99.90;;;;;;4195363;28;20082;-61
2023/09/23 08:42:39;;;;;;;13.57;4.20;;;24.20;99.90;;;;;;4193530;28;20082;-61
2023/09/23 08:44:42;;;;;;;12.70;4.90;;;24.40;99.90;;;;;;4194864;28;20488;-62
2023/09/23 08:46:45;;;;;;;17.45;4.90;;;24.60;99.90;;;;;;4193907;28;20044;-60
2023/09/23 08:48:46;;;;;;;11.20;4.03;;;24.60;99.90;;;;;;4194365;28;20044;-61
2023/09/23 08:50:51;;;;;;;12.65;4.22;;;24.70;99.90;;;;;;4193538;28;20066;-62
2023/09/23 08:52:54;;;;;;;11.57;4.00;;;24.90;99.90;;;;;;4194648;28;20430;-61
2023/09/23 08:54:56;;;;;;;14.40;4.68;;;25.00;99.90;;;;;;4194802;28;20029;-61
2023/09/23 08:56:58;;;;;;;14.80;4.50;;;25.10;99.90;;;;;;4196415;28;20024;-59
2023/09/23 08:58:59;;;;;;;10.68;4.55;;;25.20;99.90;;;;;;4194542;28;20025;-60
2023/09/23 09:01:01;;;;;;;11.73;4.15;;;25.30;99.90;;;;;;4194635;28;20432;-59
2023/09/23 09:03:02;;;;;;;9.40;4.25;;;25.20;99.90;;;;;;4193217;28;20449;-59
2023/09/23 09:05:04;;;;;;;13.25;4.57;;;25.30;99.90;;;;;;4195473;28;20044;-61
2023/09/23 09:07:05;;;;;;;32.45;5.88;;;25.40;99.90;;;;;;4195307;28;20411;-61
2023/09/23 09:09:07;;;;;;;10.18;3.90;;;25.50;99.90;;;;;;4193092;28;20028;-60
2023/09/23 09:11:09;;;;;;;10.55;4.75;;;25.40;99.90;;;;;;4194977;28;20778;-62
2023/09/23 09:13:10;;;;;;;14.15;4.53;;;25.50;99.90;;;;;;4194033;28;20481;-61
2023/09/23 09:15:11;;;;;;;17.42;5.00;;;25.60;99.90;;;;;;4194737;28;20082;-60
2023/09/23 09:17:14;;;;;;;9.68;4.13;;;25.80;99.90;;;;;;4192309;28;20054;-61
2023/09/23 09:19:15;;;;;;;12.60;4.63;;;25.80;99.90;;;;;;4191537;28;20470;-63
2023/09/23 09:21:16;;;;;;;10.50;4.85;;;25.70;99.90;;;;;;4194051;28;20028;-63
2023/09/23 09:23:17;;;;;;;19.75;6.30;;;25.80;99.90;;;;;;4194432;28;20457;-61
2023/09/23 09:25:20;;;;;;;20.02;6.90;;;25.90;99.90;;;;;;4194285;28;20052;-61
2023/09/23 09:27:22;;;;;;;18.10;4.85;;;25.90;99.90;;;;;;4195127;28;20045;-60
2023/09/23 09:29:24;;;;;;;13.82;4.88;;;26.00;99.90;;;;;;4194120;28;20082;-59
2023/09/23 09:31:33;;;;;;;17.88;5.35;;;26.10;99.90;;;;;;4193937;28;20396;-61
2023/09/23 09:33:37;;;;;;;10.98;4.93;;;26.10;99.90;;;;;;4192418;28;20098;-60
2023/09/23 09:35:40;;;;;;;20.02;4.78;;;26.20;99.90;;;;;;4194204;28;20033;-62
2023/09/23 09:37:43;;;;;;;11.90;3.80;;;26.30;99.90;;;;;;4194175;28;20021;-61
2023/09/23 09:39:55;;;;;;;11.60;5.25;;;26.40;99.90;;;;;;4193553;28;20447;-60
2023/09/23 09:41:58;;;;;;;14.43;4.85;;;26.30;99.90;;;;;;4193732;28;20029;-62
2023/09/23 09:44:02;;;;;;;9.93;4.53;;;26.20;99.90;;;;;;4193448;28;20036;-61
2023/09/23 09:46:08;;;;;;;10.98;4.03;;;26.20;99.90;;;;;;4193471;28;20048;-61
2023/09/23 09:48:12;;;;;;;12.45;4.70;;;26.20;99.90;;;;;;4192950;28;20431;-62
2023/09/23 09:50:14;;;;;;;13.75;4.32;;;26.20;99.90;;;;;;4193626;28;20032;-60
2023/09/23 09:52:16;;;;;;;13.25;4.55;;;26.30;99.90;;;;;;4193246;28;20086;-60
2023/09/23 09:54:19;;;;;;;13.30;4.07;;;26.40;99.90;;;;;;4194751;28;20477;-59
2023/09/23 09:56:21;;;;;;;12.13;4.82;;;26.40;99.90;;;;;;4194178;28;20032;-60
2023/09/23 09:58:23;;;;;;;11.32;4.05;;;26.50;99.90;;;;;;4194915;28;20147;-61
2023/09/23 10:00:35;;;;;;;12.07;3.85;;;26.60;99.90;;;;;;4193046;28;20121;-59
2023/09/23 10:02:37;;;;;;;15.45;5.15;;;26.60;99.90;;;;;;4193876;28;20048;-60
2023/09/23 10:04:45;;;;;;;12.38;4.10;;;26.80;99.90;;;;;;4193794;28;20086;-61
2023/09/23 10:06:56;;;;;;;12.38;4.03;;;26.90;99.90;;;;;;4195407;28;20102;-59
2023/09/23 10:08:57;;;;;;;13.88;4.50;;;27.00;99.90;;;;;;4193103;28;20036;-60
2023/09/23 10:11:04;;;;;;;10.23;4.30;;;27.00;99.90;;;;;;4194970;28;20472;-58
2023/09/23 10:13:08;;;;;;;15.73;4.22;;;27.10;99.90;;;;;;4193033;28;20037;-60
2023/09/23 10:15:11;;;;;;;10.02;4.75;;;27.30;99.90;;;;;;4193952;28;20489;-59
2023/09/23 10:17:13;;;;;;;13.23;4.60;;;27.40;99.90;;;;;;4192628;28;20098;-57
2023/09/23 10:19:15;;;;;;;16.95;4.70;;;27.50;99.90;;;;;;4194026;28;20044;-60
2023/09/23 10:21:24;;;;;;;13.40;4.47;;;27.60;99.90;;;;;;4192847;28;20090;-60
2023/09/23 10:23:26;;;;;;;13.63;3.60;;;27.70;99.90;;;;;;4194503;28;20649;-59
2023/09/23 10:25:37;;;;;;;14.13;4.05;;;27.80;99.90;;;;;;4192580;28;20117;-58
2023/09/23 10:27:39;;;;;;;14.52;3.88;;;27.80;99.90;;;;;;4194459;28;20066;-60
2023/09/23 10:29:47;;;;;;;17.70;3.50;;;28.00;99.90;;;;;;4192678;28;20036;-59